sensor_id;sensor_type;location;lat;lon;timestamp;P1;durP1;ratioP1;P2;durP2;ratioP2
77571;SDS011;67214;47.454;18.966;2023-03-05T00:01:16;16.32;;;9.85;;
77571;SDS011;67214;47.454;18.966;2023-03-05T00:03:47;18.17;;;10.38;;
77571;SDS011;67214;47.454;18.966;2023-03-05T00:06:17;15.78;;;9.65;;
77571;SDS011;67214;47.454;18.966;2023-03-05T00:08:46;17.12;;;10.80;;
77571;SDS011;67214;47.454;18.966;2023-03-05T00:11:16;14.30;;;9.33;;
77571;SDS011;67214;47.454;18.966;2023-03-05T00:13:43;16.40;;;10.08;;
77571;SDS011;67214;47.454;18.966;2023-03-05T00:16:12;16.07;;;10.40;;
77571;SDS011;67214;47.454;18.966;2023-03-05T00:18:41;17.05;;;10.03;;
77571;SDS011;67214;47.454;18.966;2023-03-05T00:21:24;16.87;;;9.88;;
77571;SDS011;67214;47.454;18.966;2023-03-05T00:23:49;16.70;;;9.95;;
77571;SDS011;67214;47.454;18.966;2023-03-05T00:26:17;13.45;;;9.13;;
77571;SDS011;67214;47.454;18.966;2023-03-05T00:28:46;16.55;;;9.83;;
77571;SDS011;67214;47.454;18.966;2023-03-05T00:31:16;14.58;;;9.48;;
77571;SDS011;67214;47.454;18.966;2023-03-05T00:33:45;17.35;;;9.83;;
77571;SDS011;67214;47.454;18.966;2023-03-05T00:36:14;17.23;;;9.88;;
77571;SDS011;67214;47.454;18.966;2023-03-05T00:38:41;18.20;;;10.13;;
77571;SDS011;67214;47.454;18.966;2023-03-05T00:41:09;13.30;;;9.53;;
77571;SDS011;67214;47.454;18.966;2023-03-05T00:43:36;14.50;;;9.53;;
77571;SDS011;67214;47.454;18.966;2023-03-05T00:46:04;12.63;;;8.70;;
77571;SDS011;67214;47.454;18.966;2023-03-05T00:48:31;16.25;;;9.95;;
77571;SDS011;67214;47.454;18.966;2023-03-05T00:50:59;16.62;;;9.03;;
77571;SDS011;67214;47.454;18.966;2023-03-05T00:53:26;16.85;;;9.40;;
77571;SDS011;67214;47.454;18.966;2023-03-05T00:55:54;16.93;;;9.43;;
77571;SDS011;67214;47.454;18.966;2023-03-05T00:58:21;15.68;;;9.73;;
77571;SDS011;67214;47.454;18.966;2023-03-05T01:00:48;19.17;;;9.35;;
77571;SDS011;67214;47.454;18.966;2023-03-05T01:03:17;15.30;;;9.43;;
77571;SDS011;67214;47.454;18.966;2023-03-05T01:05:44;14.93;;;10.03;;
77571;SDS011;67214;47.454;18.966;2023-03-05T01:08:12;14.70;;;9.23;;
77571;SDS011;67214;47.454;18.966;2023-03-05T01:10:40;15.83;;;9.25;;
77571;SDS011;67214;47.454;18.966;2023-03-05T01:13:08;14.58;;;9.45;;
77571;SDS011;67214;47.454;18.966;2023-03-05T01:15:35;18.57;;;9.80;;
77571;SDS011;67214;47.454;18.966;2023-03-05T01:18:02;14.03;;;9.63;;
77571;SDS011;67214;47.454;18.966;2023-03-05T01:20:30;15.65;;;9.15;;
77571;SDS011;67214;47.454;18.966;2023-03-05T01:22:58;15.18;;;10.05;;
77571;SDS011;67214;47.454;18.966;2023-03-05T01:25:26;17.35;;;10.23;;
77571;SDS011;67214;47.454;18.966;2023-03-05T01:27:54;15.25;;;9.58;;
77571;SDS011;67214;47.454;18.966;2023-03-05T01:30:21;16.02;;;9.33;;
77571;SDS011;67214;47.454;18.966;2023-03-05T01:32:49;18.25;;;10.08;;
77571;SDS011;67214;47.454;18.966;2023-03-05T01:35:18;17.00;;;10.75;;
77571;SDS011;67214;47.454;18.966;2023-03-05T01:37:47;16.48;;;8.98;;
77571;SDS011;67214;47.454;18.966;2023-03-05T01:40:16;13.22;;;9.30;;
77571;SDS011;67214;47.454;18.966;2023-03-05T01:42:47;15.93;;;9.43;;
77571;SDS011;67214;47.454;18.966;2023-03-05T01:45:17;16.50;;;8.70;;
77571;SDS011;67214;47.454;18.966;2023-03-05T01:47:44;17.15;;;8.80;;
77571;SDS011;67214;47.454;18.966;2023-03-05T01:50:13;15.43;;;9.40;;
77571;SDS011;67214;47.454;18.966;2023-03-05T01:52:49;17.92;;;9.68;;
77571;SDS011;67214;47.454;18.966;2023-03-05T01:55:24;17.32;;;9.98;;
77571;SDS011;67214;47.454;18.966;2023-03-05T01:57:55;15.78;;;9.70;;
77571;SDS011;67214;47.454;18.966;2023-03-05T02:00:33;19.00;;;9.88;;
77571;SDS011;67214;47.454;18.966;2023-03-05T02:02:59;15.72;;;9.95;;
77571;SDS011;67214;47.454;18.966;2023-03-05T02:05:33;14.68;;;9.08;;
77571;SDS011;67214;47.454;18.966;2023-03-05T02:08:06;17.52;;;9.75;;
77571;SDS011;67214;47.454;18.966;2023-03-05T02:10:45;15.23;;;9.65;;
77571;SDS011;67214;47.454;18.966;2023-03-05T02:13:21;16.00;;;9.23;;
77571;SDS011;67214;47.454;18.966;2023-03-05T02:15:48;15.90;;;10.03;;
77571;SDS011;67214;47.454;18.966;2023-03-05T02:18:16;18.73;;;10.03;;
77571;SDS011;67214;47.454;18.966;2023-03-05T02:23:29;16.77;;;10.20;;
77571;SDS011;67214;47.454;18.966;2023-03-05T02:26:05;15.72;;;9.73;;
77571;SDS011;67214;47.454;18.966;2023-03-05T02:28:33;16.80;;;9.90;;
77571;SDS011;67214;47.454;18.966;2023-03-05T02:31:07;16.73;;;9.33;;
77571;SDS011;67214;47.454;18.966;2023-03-05T02:33:35;18.10;;;10.58;;
77571;SDS011;67214;47.454;18.966;2023-03-05T02:36:02;13.95;;;8.95;;
77571;SDS011;67214;47.454;18.966;2023-03-05T02:38:31;18.60;;;9.98;;
77571;SDS011;67214;47.454;18.966;2023-03-05T02:40:58;14.10;;;8.95;;
77571;SDS011;67214;47.454;18.966;2023-03-05T02:43:26;15.95;;;9.05;;
77571;SDS011;67214;47.454;18.966;2023-03-05T02:45:53;14.68;;;8.68;;
77571;SDS011;67214;47.454;18.966;2023-03-05T02:48:21;14.50;;;9.15;;
77571;SDS011;67214;47.454;18.966;2023-03-05T02:50:48;18.50;;;8.38;;
77571;SDS011;67214;47.454;18.966;2023-03-05T02:53:16;17.85;;;9.33;;
77571;SDS011;67214;47.454;18.966;2023-03-05T02:55:47;17.32;;;9.65;;
77571;SDS011;67214;47.454;18.966;2023-03-05T02:58:15;14.40;;;9.05;;
77571;SDS011;67214;47.454;18.966;2023-03-05T03:00:43;18.85;;;9.18;;
77571;SDS011;67214;47.454;18.966;2023-03-05T03:03:11;16.15;;;9.98;;
77571;SDS011;67214;47.454;18.966;2023-03-05T03:05:39;16.93;;;8.63;;
77571;SDS011;67214;47.454;18.966;2023-03-05T03:08:07;20.57;;;9.45;;
77571;SDS011;67214;47.454;18.966;2023-03-05T03:10:35;20.95;;;9.53;;
77571;SDS011;67214;47.454;18.966;2023-03-05T03:13:02;13.85;;;9.30;;
77571;SDS011;67214;47.454;18.966;2023-03-05T03:15:29;15.08;;;8.65;;
77571;SDS011;67214;47.454;18.966;2023-03-05T03:17:57;13.45;;;8.73;;
77571;SDS011;67214;47.454;18.966;2023-03-05T03:20:24;16.87;;;8.43;;
77571;SDS011;67214;47.454;18.966;2023-03-05T03:22:52;18.00;;;8.35;;
77571;SDS011;67214;47.454;18.966;2023-03-05T03:25:20;14.83;;;9.28;;
77571;SDS011;67214;47.454;18.966;2023-03-05T03:27:48;18.45;;;8.23;;
77571;SDS011;67214;47.454;18.966;2023-03-05T03:30:16;14.13;;;7.78;;
77571;SDS011;67214;47.454;18.966;2023-03-05T03:32:44;12.13;;;7.53;;
77571;SDS011;67214;47.454;18.966;2023-03-05T03:35:11;12.75;;;8.00;;
77571;SDS011;67214;47.454;18.966;2023-03-05T03:37:39;16.52;;;9.23;;
77571;SDS011;67214;47.454;18.966;2023-03-05T03:40:07;15.55;;;8.65;;
77571;SDS011;67214;47.454;18.966;2023-03-05T03:42:36;15.05;;;8.68;;
77571;SDS011;67214;47.454;18.966;2023-03-05T03:45:04;12.68;;;7.20;;
77571;SDS011;67214;47.454;18.966;2023-03-05T03:47:32;15.20;;;8.35;;
77571;SDS011;67214;47.454;18.966;2023-03-05T03:49:59;13.25;;;8.48;;
77571;SDS011;67214;47.454;18.966;2023-03-05T03:52:27;16.30;;;7.83;;
77571;SDS011;67214;47.454;18.966;2023-03-05T03:54:54;14.60;;;8.23;;
77571;SDS011;67214;47.454;18.966;2023-03-05T03:57:23;17.15;;;8.03;;
77571;SDS011;67214;47.454;18.966;2023-03-05T03:59:51;16.12;;;9.33;;
77571;SDS011;67214;47.454;18.966;2023-03-05T04:02:18;16.15;;;9.28;;
77571;SDS011;67214;47.454;18.966;2023-03-05T04:04:46;17.42;;;9.05;;
77571;SDS011;67214;47.454;18.966;2023-03-05T04:07:13;13.43;;;7.87;;
77571;SDS011;67214;47.454;18.966;2023-03-05T04:09:41;14.83;;;8.65;;
77571;SDS011;67214;47.454;18.966;2023-03-05T04:12:09;17.32;;;8.43;;
77571;SDS011;67214;47.454;18.966;2023-03-05T04:14:36;17.67;;;9.60;;
77571;SDS011;67214;47.454;18.966;2023-03-05T04:17:04;15.78;;;8.85;;
77571;SDS011;67214;47.454;18.966;2023-03-05T04:19:31;14.68;;;8.85;;
77571;SDS011;67214;47.454;18.966;2023-03-05T04:21:58;14.30;;;8.80;;
77571;SDS011;67214;47.454;18.966;2023-03-05T04:24:26;19.48;;;9.35;;
77571;SDS011;67214;47.454;18.966;2023-03-05T04:26:53;16.15;;;8.30;;
77571;SDS011;67214;47.454;18.966;2023-03-05T04:29:21;20.15;;;9.88;;
77571;SDS011;67214;47.454;18.966;2023-03-05T04:31:48;16.73;;;9.08;;
77571;SDS011;67214;47.454;18.966;2023-03-05T04:34:16;15.03;;;8.63;;
77571;SDS011;67214;47.454;18.966;2023-03-05T04:36:43;22.93;;;9.20;;
77571;SDS011;67214;47.454;18.966;2023-03-05T04:39:10;14.90;;;8.48;;
77571;SDS011;67214;47.454;18.966;2023-03-05T04:41:38;15.15;;;8.23;;
77571;SDS011;67214;47.454;18.966;2023-03-05T04:44:05;14.87;;;8.83;;
77571;SDS011;67214;47.454;18.966;2023-03-05T04:46:33;16.07;;;9.18;;
77571;SDS011;67214;47.454;18.966;2023-03-05T04:49:00;17.05;;;9.90;;
77571;SDS011;67214;47.454;18.966;2023-03-05T04:51:28;15.43;;;8.93;;
77571;SDS011;67214;47.454;18.966;2023-03-05T04:53:55;17.50;;;8.95;;
77571;SDS011;67214;47.454;18.966;2023-03-05T04:56:23;17.45;;;9.53;;
77571;SDS011;67214;47.454;18.966;2023-03-05T04:58:51;15.00;;;8.40;;
77571;SDS011;67214;47.454;18.966;2023-03-05T05:01:18;19.80;;;10.20;;
77571;SDS011;67214;47.454;18.966;2023-03-05T05:03:45;16.20;;;9.63;;
77571;SDS011;67214;47.454;18.966;2023-03-05T05:06:13;17.98;;;9.70;;
77571;SDS011;67214;47.454;18.966;2023-03-05T05:08:40;17.27;;;9.50;;
77571;SDS011;67214;47.454;18.966;2023-03-05T05:11:10;22.17;;;11.48;;
77571;SDS011;67214;47.454;18.966;2023-03-05T05:13:38;16.27;;;9.00;;
77571;SDS011;67214;47.454;18.966;2023-03-05T05:16:07;17.65;;;9.45;;
77571;SDS011;67214;47.454;18.966;2023-03-05T05:18:35;15.55;;;9.70;;
77571;SDS011;67214;47.454;18.966;2023-03-05T05:21:06;17.07;;;9.33;;
77571;SDS011;67214;47.454;18.966;2023-03-05T05:23:35;20.82;;;10.85;;
77571;SDS011;67214;47.454;18.966;2023-03-05T05:26:03;18.17;;;9.43;;
77571;SDS011;67214;47.454;18.966;2023-03-05T05:28:32;19.50;;;10.28;;
77571;SDS011;67214;47.454;18.966;2023-03-05T05:31:06;17.80;;;10.30;;
77571;SDS011;67214;47.454;18.966;2023-03-05T05:33:39;16.32;;;9.40;;
77571;SDS011;67214;47.454;18.966;2023-03-05T05:36:08;14.65;;;9.23;;
77571;SDS011;67214;47.454;18.966;2023-03-05T05:38:37;13.88;;;9.38;;
77571;SDS011;67214;47.454;18.966;2023-03-05T05:41:08;17.65;;;9.58;;
77571;SDS011;67214;47.454;18.966;2023-03-05T05:43:38;17.67;;;9.73;;
77571;SDS011;67214;47.454;18.966;2023-03-05T05:46:07;20.23;;;10.23;;
77571;SDS011;67214;47.454;18.966;2023-03-05T05:48:36;16.35;;;9.90;;
77571;SDS011;67214;47.454;18.966;2023-03-05T05:51:07;17.37;;;10.35;;
77571;SDS011;67214;47.454;18.966;2023-03-05T05:53:37;18.48;;;10.18;;
77571;SDS011;67214;47.454;18.966;2023-03-05T05:56:04;16.40;;;9.33;;
77571;SDS011;67214;47.454;18.966;2023-03-05T05:58:34;16.80;;;9.45;;
77571;SDS011;67214;47.454;18.966;2023-03-05T06:01:16;21.37;;;10.55;;
77571;SDS011;67214;47.454;18.966;2023-03-05T06:03:40;19.50;;;9.55;;
77571;SDS011;67214;47.454;18.966;2023-03-05T06:06:09;16.05;;;9.75;;
77571;SDS011;67214;47.454;18.966;2023-03-05T06:08:37;17.92;;;10.60;;
77571;SDS011;67214;47.454;18.966;2023-03-05T06:11:05;18.32;;;9.98;;
77571;SDS011;67214;47.454;18.966;2023-03-05T06:13:33;21.10;;;10.68;;
77571;SDS011;67214;47.454;18.966;2023-03-05T06:16:03;18.92;;;10.38;;
77571;SDS011;67214;47.454;18.966;2023-03-05T06:18:32;20.48;;;9.68;;
77571;SDS011;67214;47.454;18.966;2023-03-05T06:21:02;20.97;;;9.93;;
77571;SDS011;67214;47.454;18.966;2023-03-05T06:23:31;19.05;;;10.68;;
77571;SDS011;67214;47.454;18.966;2023-03-05T06:26:00;16.85;;;10.40;;
77571;SDS011;67214;47.454;18.966;2023-03-05T06:28:29;21.73;;;11.90;;
77571;SDS011;67214;47.454;18.966;2023-03-05T06:33:34;17.02;;;10.72;;
77571;SDS011;67214;47.454;18.966;2023-03-05T06:36:05;18.90;;;10.58;;
77571;SDS011;67214;47.454;18.966;2023-03-05T06:38:34;20.02;;;10.30;;
77571;SDS011;67214;47.454;18.966;2023-03-05T06:41:03;17.02;;;11.03;;
77571;SDS011;67214;47.454;18.966;2023-03-05T06:43:34;18.73;;;10.82;;
77571;SDS011;67214;47.454;18.966;2023-03-05T06:46:03;17.40;;;10.40;;
77571;SDS011;67214;47.454;18.966;2023-03-05T06:48:32;19.30;;;11.25;;
77571;SDS011;67214;47.454;18.966;2023-03-05T06:51:00;20.85;;;12.63;;
77571;SDS011;67214;47.454;18.966;2023-03-05T06:53:27;26.25;;;12.47;;
77571;SDS011;67214;47.454;18.966;2023-03-05T06:55:55;29.57;;;17.55;;
77571;SDS011;67214;47.454;18.966;2023-03-05T06:58:22;23.92;;;13.60;;
77571;SDS011;67214;47.454;18.966;2023-03-05T07:00:50;20.77;;;12.05;;
77571;SDS011;67214;47.454;18.966;2023-03-05T07:03:17;22.45;;;11.75;;
77571;SDS011;67214;47.454;18.966;2023-03-05T07:05:45;21.65;;;12.13;;
77571;SDS011;67214;47.454;18.966;2023-03-05T07:08:12;19.65;;;11.53;;
77571;SDS011;67214;47.454;18.966;2023-03-05T07:10:40;20.25;;;11.83;;
77571;SDS011;67214;47.454;18.966;2023-03-05T07:13:09;23.83;;;11.50;;
77571;SDS011;67214;47.454;18.966;2023-03-05T07:15:37;23.12;;;12.37;;
77571;SDS011;67214;47.454;18.966;2023-03-05T07:18:05;20.77;;;12.35;;
77571;SDS011;67214;47.454;18.966;2023-03-05T07:20:34;20.15;;;11.75;;
77571;SDS011;67214;47.454;18.966;2023-03-05T07:23:02;21.05;;;11.48;;
77571;SDS011;67214;47.454;18.966;2023-03-05T07:25:30;19.55;;;12.00;;
77571;SDS011;67214;47.454;18.966;2023-03-05T07:27:58;16.70;;;11.22;;
77571;SDS011;67214;47.454;18.966;2023-03-05T07:30:26;18.23;;;11.48;;
77571;SDS011;67214;47.454;18.966;2023-03-05T07:32:53;20.37;;;10.95;;
77571;SDS011;67214;47.454;18.966;2023-03-05T07:35:21;22.13;;;11.28;;
77571;SDS011;67214;47.454;18.966;2023-03-05T07:37:49;21.95;;;12.40;;
77571;SDS011;67214;47.454;18.966;2023-03-05T07:40:17;19.80;;;11.12;;
77571;SDS011;67214;47.454;18.966;2023-03-05T07:42:44;18.57;;;12.10;;
77571;SDS011;67214;47.454;18.966;2023-03-05T07:45:12;18.67;;;11.97;;
77571;SDS011;67214;47.454;18.966;2023-03-05T07:47:39;18.25;;;11.28;;
77571;SDS011;67214;47.454;18.966;2023-03-05T07:50:07;20.70;;;11.43;;
77571;SDS011;67214;47.454;18.966;2023-03-05T07:52:35;28.02;;;16.35;;
77571;SDS011;67214;47.454;18.966;2023-03-05T07:55:02;19.27;;;12.70;;
77571;SDS011;67214;47.454;18.966;2023-03-05T07:57:30;19.02;;;11.18;;
77571;SDS011;67214;47.454;18.966;2023-03-05T07:59:59;20.00;;;11.83;;
77571;SDS011;67214;47.454;18.966;2023-03-05T08:02:26;22.42;;;11.45;;
77571;SDS011;67214;47.454;18.966;2023-03-05T08:04:54;20.08;;;12.40;;
77571;SDS011;67214;47.454;18.966;2023-03-05T08:07:22;20.08;;;11.80;;
77571;SDS011;67214;47.454;18.966;2023-03-05T08:09:49;18.82;;;10.63;;
77571;SDS011;67214;47.454;18.966;2023-03-05T08:12:17;17.98;;;10.90;;
77571;SDS011;67214;47.454;18.966;2023-03-05T08:14:44;16.60;;;10.88;;
77571;SDS011;67214;47.454;18.966;2023-03-05T08:17:12;22.58;;;11.40;;
77571;SDS011;67214;47.454;18.966;2023-03-05T08:19:39;16.73;;;10.38;;
77571;SDS011;67214;47.454;18.966;2023-03-05T08:22:07;18.45;;;11.60;;
77571;SDS011;67214;47.454;18.966;2023-03-05T08:24:34;18.73;;;10.28;;
77571;SDS011;67214;47.454;18.966;2023-03-05T08:27:02;16.37;;;10.30;;
77571;SDS011;67214;47.454;18.966;2023-03-05T08:29:30;16.82;;;9.73;;
77571;SDS011;67214;47.454;18.966;2023-03-05T08:31:57;23.20;;;11.83;;
77571;SDS011;67214;47.454;18.966;2023-03-05T08:34:24;19.65;;;10.45;;
77571;SDS011;67214;47.454;18.966;2023-03-05T08:36:52;18.77;;;11.05;;
77571;SDS011;67214;47.454;18.966;2023-03-05T08:39:19;18.48;;;11.33;;
77571;SDS011;67214;47.454;18.966;2023-03-05T08:41:47;20.50;;;11.60;;
77571;SDS011;67214;47.454;18.966;2023-03-05T08:44:14;16.52;;;10.18;;
77571;SDS011;67214;47.454;18.966;2023-03-05T08:46:42;18.67;;;11.10;;
77571;SDS011;67214;47.454;18.966;2023-03-05T08:49:09;21.55;;;12.03;;
77571;SDS011;67214;47.454;18.966;2023-03-05T08:51:37;20.32;;;11.50;;
77571;SDS011;67214;47.454;18.966;2023-03-05T08:54:04;18.35;;;10.58;;
77571;SDS011;67214;47.454;18.966;2023-03-05T08:56:33;19.17;;;10.80;;
77571;SDS011;67214;47.454;18.966;2023-03-05T08:59:01;21.87;;;12.63;;
77571;SDS011;67214;47.454;18.966;2023-03-05T09:01:29;18.27;;;12.25;;
77571;SDS011;67214;47.454;18.966;2023-03-05T09:03:57;18.07;;;10.68;;
77571;SDS011;67214;47.454;18.966;2023-03-05T09:06:26;20.00;;;11.30;;
77571;SDS011;67214;47.454;18.966;2023-03-05T09:08:53;20.77;;;11.18;;
77571;SDS011;67214;47.454;18.966;2023-03-05T09:11:21;17.10;;;11.00;;
77571;SDS011;67214;47.454;18.966;2023-03-05T09:13:48;17.30;;;11.38;;
77571;SDS011;67214;47.454;18.966;2023-03-05T09:16:17;16.12;;;11.93;;
77571;SDS011;67214;47.454;18.966;2023-03-05T09:18:45;18.50;;;10.48;;
77571;SDS011;67214;47.454;18.966;2023-03-05T09:21:14;18.42;;;11.00;;
77571;SDS011;67214;47.454;18.966;2023-03-05T09:23:42;17.45;;;10.20;;
77571;SDS011;67214;47.454;18.966;2023-03-05T09:26:12;19.37;;;11.08;;
77571;SDS011;67214;47.454;18.966;2023-03-05T09:28:42;19.25;;;11.80;;
77571;SDS011;67214;47.454;18.966;2023-03-05T09:31:11;17.90;;;11.20;;
77571;SDS011;67214;47.454;18.966;2023-03-05T09:33:39;18.05;;;11.15;;
77571;SDS011;67214;47.454;18.966;2023-03-05T09:36:16;17.55;;;11.53;;
77571;SDS011;67214;47.454;18.966;2023-03-05T09:38:45;20.62;;;12.60;;
77571;SDS011;67214;47.454;18.966;2023-03-05T09:44:08;17.85;;;11.65;;
77571;SDS011;67214;47.454;18.966;2023-03-05T09:52:33;19.42;;;11.90;;
77571;SDS011;67214;47.454;18.966;2023-03-05T09:55:01;17.02;;;11.57;;
77571;SDS011;67214;47.454;18.966;2023-03-05T09:57:44;19.12;;;11.78;;
77571;SDS011;67214;47.454;18.966;2023-03-05T10:02:53;17.52;;;11.55;;
77571;SDS011;67214;47.454;18.966;2023-03-05T10:05:29;18.00;;;11.43;;
77571;SDS011;67214;47.454;18.966;2023-03-05T10:08:02;19.48;;;12.58;;
77571;SDS011;67214;47.454;18.966;2023-03-05T10:10:38;17.02;;;10.90;;
77571;SDS011;67214;47.454;18.966;2023-03-05T10:18:45;15.35;;;10.75;;
77571;SDS011;67214;47.454;18.966;2023-03-05T10:21:27;16.73;;;11.00;;
77571;SDS011;67214;47.454;18.966;2023-03-05T10:24:37;17.77;;;10.60;;
77571;SDS011;67214;47.454;18.966;2023-03-05T10:26:59;22.45;;;11.73;;
77571;SDS011;67214;47.454;18.966;2023-03-05T10:29:50;16.70;;;11.65;;
77571;SDS011;67214;47.454;18.966;2023-03-05T10:40:16;18.37;;;11.08;;
77571;SDS011;67214;47.454;18.966;2023-03-05T10:46:11;18.37;;;11.18;;
77571;SDS011;67214;47.454;18.966;2023-03-05T10:50:49;16.37;;;10.18;;
77571;SDS011;67214;47.454;18.966;2023-03-05T10:55:47;14.07;;;9.80;;
77571;SDS011;67214;47.454;18.966;2023-03-05T10:58:16;15.93;;;10.00;;
77571;SDS011;67214;47.454;18.966;2023-03-05T11:01:04;14.47;;;9.25;;
77571;SDS011;67214;47.454;18.966;2023-03-05T11:03:47;15.63;;;9.55;;
77571;SDS011;67214;47.454;18.966;2023-03-05T11:06:31;16.50;;;10.28;;
77571;SDS011;67214;47.454;18.966;2023-03-05T11:08:56;15.03;;;9.55;;
77571;SDS011;67214;47.454;18.966;2023-03-05T11:11:43;15.93;;;9.18;;
77571;SDS011;67214;47.454;18.966;2023-03-05T11:14:23;15.20;;;9.30;;
77571;SDS011;67214;47.454;18.966;2023-03-05T11:16:53;16.67;;;9.18;;
77571;SDS011;67214;47.454;18.966;2023-03-05T11:19:28;14.55;;;9.30;;
77571;SDS011;67214;47.454;18.966;2023-03-05T11:24:39;13.60;;;9.23;;
77571;SDS011;67214;47.454;18.966;2023-03-05T11:27:24;13.08;;;9.18;;
77571;SDS011;67214;47.454;18.966;2023-03-05T11:29:53;14.87;;;9.65;;
77571;SDS011;67214;47.454;18.966;2023-03-05T11:32:22;13.70;;;9.75;;
77571;SDS011;67214;47.454;18.966;2023-03-05T11:34:52;15.53;;;10.35;;
77571;SDS011;67214;47.454;18.966;2023-03-05T11:37:27;12.30;;;8.33;;
77571;SDS011;67214;47.454;18.966;2023-03-05T11:42:37;13.50;;;8.23;;
77571;SDS011;67214;47.454;18.966;2023-03-05T11:45:13;12.43;;;7.62;;
77571;SDS011;67214;47.454;18.966;2023-03-05T11:47:47;11.68;;;7.53;;
77571;SDS011;67214;47.454;18.966;2023-03-05T11:50:24;15.78;;;8.08;;
77571;SDS011;67214;47.454;18.966;2023-03-05T11:52:58;11.75;;;8.18;;
77571;SDS011;67214;47.454;18.966;2023-03-05T12:00:57;14.87;;;9.88;;
77571;SDS011;67214;47.454;18.966;2023-03-05T12:03:32;16.17;;;8.28;;
77571;SDS011;67214;47.454;18.966;2023-03-05T12:06:37;12.78;;;7.28;;
77571;SDS011;67214;47.454;18.966;2023-03-05T12:08:59;17.77;;;9.00;;
77571;SDS011;67214;47.454;18.966;2023-03-05T12:11:29;10.58;;;7.20;;
77571;SDS011;67214;47.454;18.966;2023-03-05T12:14:19;11.90;;;8.75;;
77571;SDS011;67214;47.454;18.966;2023-03-05T12:16:49;12.33;;;7.08;;
77571;SDS011;67214;47.454;18.966;2023-03-05T12:19:35;10.75;;;7.10;;
77571;SDS011;67214;47.454;18.966;2023-03-05T12:22:16;9.45;;;6.90;;
77571;SDS011;67214;47.454;18.966;2023-03-05T12:24:46;12.03;;;7.75;;
77571;SDS011;67214;47.454;18.966;2023-03-05T12:27:14;11.63;;;6.87;;
77571;SDS011;67214;47.454;18.966;2023-03-05T12:29:45;10.40;;;7.65;;
77571;SDS011;67214;47.454;18.966;2023-03-05T12:35:00;12.30;;;7.90;;
77571;SDS011;67214;47.454;18.966;2023-03-05T12:47:44;14.50;;;7.42;;
77571;SDS011;67214;47.454;18.966;2023-03-05T12:58:36;11.68;;;7.75;;
77571;SDS011;67214;47.454;18.966;2023-03-05T13:03:50;12.40;;;7.90;;
77571;SDS011;67214;47.454;18.966;2023-03-05T13:11:40;8.98;;;6.80;;
77571;SDS011;67214;47.454;18.966;2023-03-05T13:20:56;12.13;;;8.18;;
77571;SDS011;67214;47.454;18.966;2023-03-05T13:23:03;10.50;;;7.28;;
77571;SDS011;67214;47.454;18.966;2023-03-05T13:25:43;9.40;;;6.22;;
77571;SDS011;67214;47.454;18.966;2023-03-05T13:28:13;14.68;;;7.53;;
77571;SDS011;67214;47.454;18.966;2023-03-05T13:31:30;11.05;;;6.53;;
77571;SDS011;67214;47.454;18.966;2023-03-05T13:33:31;10.98;;;6.97;;
77571;SDS011;67214;47.454;18.966;2023-03-05T13:35:56;14.20;;;8.15;;
77571;SDS011;67214;47.454;18.966;2023-03-05T13:38:30;15.43;;;8.10;;
77571;SDS011;67214;47.454;18.966;2023-03-05T13:41:05;12.85;;;6.67;;
77571;SDS011;67214;47.454;18.966;2023-03-05T13:43:53;9.40;;;6.22;;
77571;SDS011;67214;47.454;18.966;2023-03-05T13:46:24;10.35;;;6.65;;
77571;SDS011;67214;47.454;18.966;2023-03-05T13:49:42;9.50;;;6.20;;
77571;SDS011;67214;47.454;18.966;2023-03-05T13:51:52;10.35;;;6.85;;
77571;SDS011;67214;47.454;18.966;2023-03-05T13:54:22;11.65;;;6.60;;
77571;SDS011;67214;47.454;18.966;2023-03-05T13:56:54;11.80;;;6.58;;
77571;SDS011;67214;47.454;18.966;2023-03-05T13:59:25;10.90;;;6.85;;
77571;SDS011;67214;47.454;18.966;2023-03-05T14:01:55;11.95;;;7.25;;
77571;SDS011;67214;47.454;18.966;2023-03-05T14:04:26;10.23;;;6.30;;
77571;SDS011;67214;47.454;18.966;2023-03-05T14:07:00;9.68;;;6.15;;
77571;SDS011;67214;47.454;18.966;2023-03-05T14:09:30;9.78;;;6.33;;
77571;SDS011;67214;47.454;18.966;2023-03-05T14:14:52;11.80;;;8.03;;
77571;SDS011;67214;47.454;18.966;2023-03-05T14:17:29;13.00;;;6.72;;
77571;SDS011;67214;47.454;18.966;2023-03-05T14:20:16;10.85;;;6.67;;
77571;SDS011;67214;47.454;18.966;2023-03-05T14:22:41;10.55;;;6.83;;
77571;SDS011;67214;47.454;18.966;2023-03-05T14:25:23;11.50;;;7.55;;
77571;SDS011;67214;47.454;18.966;2023-03-05T14:27:51;12.20;;;6.42;;
77571;SDS011;67214;47.454;18.966;2023-03-05T14:30:20;11.18;;;6.67;;
77571;SDS011;67214;47.454;18.966;2023-03-05T14:32:49;11.12;;;6.30;;
77571;SDS011;67214;47.454;18.966;2023-03-05T14:35:20;11.22;;;6.87;;
77571;SDS011;67214;47.454;18.966;2023-03-05T14:37:50;10.82;;;6.35;;
77571;SDS011;67214;47.454;18.966;2023-03-05T14:40:30;10.58;;;6.65;;
77571;SDS011;67214;47.454;18.966;2023-03-05T14:45:31;12.10;;;7.47;;
77571;SDS011;67214;47.454;18.966;2023-03-05T14:48:00;12.23;;;7.97;;
77571;SDS011;67214;47.454;18.966;2023-03-05T14:50:35;11.20;;;7.17;;
77571;SDS011;67214;47.454;18.966;2023-03-05T14:53:00;11.45;;;6.83;;
77571;SDS011;67214;47.454;18.966;2023-03-05T14:55:31;12.78;;;7.25;;
77571;SDS011;67214;47.454;18.966;2023-03-05T14:58:03;10.18;;;7.35;;
77571;SDS011;67214;47.454;18.966;2023-03-05T15:00:42;10.98;;;7.80;;
77571;SDS011;67214;47.454;18.966;2023-03-05T15:03:11;10.43;;;7.10;;
77571;SDS011;67214;47.454;18.966;2023-03-05T15:05:41;12.10;;;7.75;;
77571;SDS011;67214;47.454;18.966;2023-03-05T15:08:17;11.85;;;6.42;;
77571;SDS011;67214;47.454;18.966;2023-03-05T15:10:50;11.78;;;6.97;;
77571;SDS011;67214;47.454;18.966;2023-03-05T15:13:18;11.50;;;6.53;;
77571;SDS011;67214;47.454;18.966;2023-03-05T15:15:47;13.15;;;6.85;;
77571;SDS011;67214;47.454;18.966;2023-03-05T15:18:16;17.82;;;8.90;;
77571;SDS011;67214;47.454;18.966;2023-03-05T15:20:47;12.50;;;6.80;;
77571;SDS011;67214;47.454;18.966;2023-03-05T15:23:17;11.10;;;6.58;;
77571;SDS011;67214;47.454;18.966;2023-03-05T15:25:45;13.13;;;8.18;;
77571;SDS011;67214;47.454;18.966;2023-03-05T15:28:13;10.68;;;6.58;;
77571;SDS011;67214;47.454;18.966;2023-03-05T15:30:43;11.43;;;6.92;;
77571;SDS011;67214;47.454;18.966;2023-03-05T15:33:14;10.30;;;6.87;;
77571;SDS011;67214;47.454;18.966;2023-03-05T15:35:43;10.23;;;7.15;;
77571;SDS011;67214;47.454;18.966;2023-03-05T15:38:11;10.65;;;6.80;;
77571;SDS011;67214;47.454;18.966;2023-03-05T15:40:40;12.20;;;6.78;;
77571;SDS011;67214;47.454;18.966;2023-03-05T15:43:09;13.83;;;8.18;;
77571;SDS011;67214;47.454;18.966;2023-03-05T15:45:37;13.38;;;8.48;;
77571;SDS011;67214;47.454;18.966;2023-03-05T15:48:05;13.15;;;7.65;;
77571;SDS011;67214;47.454;18.966;2023-03-05T15:50:33;10.38;;;6.85;;
77571;SDS011;67214;47.454;18.966;2023-03-05T15:53:01;12.05;;;7.70;;
77571;SDS011;67214;47.454;18.966;2023-03-05T15:55:29;13.05;;;7.65;;
77571;SDS011;67214;47.454;18.966;2023-03-05T15:57:57;16.05;;;11.20;;
77571;SDS011;67214;47.454;18.966;2023-03-05T16:00:27;28.27;;;24.27;;
77571;SDS011;67214;47.454;18.966;2023-03-05T16:02:58;15.65;;;8.43;;